Time;durP1;ratioP1;P1;durP2;ratioP2;P2;SDS_P1;SDS_P2;PMS_P1;PMS_P2;Temp;Humidity;BMP_temperature;BMP_pressure;BME280_temperature;BME280_humidity;BME280_pressure;Samples;Min_cycle;Max_cycle;Signal;HPM_P1;HPM_P2
2022/01/28 00:01:39;;;;;;;;;;;;;;;-2.09;100.00;100777.38;4995178;28;19914;-63
2022/01/28 00:04:14;;;;;;;;;;;;;;;-2.34;100.00;100779.78;4994899;28;19996;-63
2022/01/28 00:06:39;;;;;;;;;;;;;;;-1.97;100.00;100770.31;4994640;28;19917;-63
2022/01/28 00:09:05;;;;;;;;;;;;;;;-2.22;100.00;100774.38;4994881;28;19922;-63
2022/01/28 00:11:30;;;;;;;;;;;;;;;-2.02;100.00;100771.78;4994910;28;20008;-63
2022/01/28 00:14:09;;;;;;;;;;;;;;;-2.15;100.00;100763.84;4994619;28;19918;-63
2022/01/28 00:20:04;;;;;;;;;;;;;;;-2.25;100.00;100762.66;4994523;28;19914;-63
2022/01/28 00:38:09;;;;;;;;;;;;;;;-2.31;100.00;100741.69;4994115;28;19964;-65
2022/01/28 00:40:34;;;;;;;;;;;;;;;-2.25;100.00;100737.78;4994645;28;19953;-65
2022/01/28 00:43:00;;;;;;;;;;;;;;;-2.17;100.00;100738.03;4994255;28;19969;-63
2022/01/28 00:45:25;;;;;;;;;;;;;;;-2.53;100.00;100740.06;4994308;28;19921;-63
2022/01/28 00:47:51;;;;;;;;;;;;;;;-2.31;100.00;100735.06;4994369;28;19976;-62
2022/01/28 00:50:16;;;;;;;;;;;;;;;-2.38;100.00;100734.81;4993878;28;19924;-62
2022/01/28 00:52:42;;;;;;;;;;;;;;;-2.29;100.00;100733.47;4993891;28;19913;-62
2022/01/28 00:55:07;;;;;;;;;;;;;;;-2.44;100.00;100730.47;4994273;28;19909;-62
2022/01/28 00:57:32;;;;;;;;;;;;;;;-2.59;100.00;100722.44;4994335;28;19921;-62
2022/01/28 00:59:58;;;;;;;;;;;;;;;-2.22;100.00;100722.09;4994441;28;19988;-62
2022/01/28 01:02:25;;;;;;;;;;;;;;;-2.52;100.00;100711.91;4358691;23;10000696;-63
2022/01/28 01:04:51;;;;;;;;;;;;;;;-2.45;100.00;100721.28;5030575;28;19923;-63
2022/01/28 01:07:16;;;;;;;;;;;;;;;-2.64;100.00;100718.94;5033820;28;19920;-63
2022/01/28 01:09:41;;;;;;;;;;;;;;;-2.32;100.00;100717.59;5031695;28;20007;-63
2022/01/28 01:12:07;;;;;;;;;;;;;;;-2.57;100.00;100720.84;5032482;28;20383;-63
2022/01/28 01:14:32;;;;;;;;;;;;;;;-2.74;100.00;100726.84;5033056;28;19971;-63
2022/01/28 01:17:13;;;;;;;;;;;;;;;-2.85;100.00;100731.41;5031651;28;19913;-63
2022/01/28 01:19:43;;;;;;;;;;;;;;;-2.51;100.00;100723.56;5031946;28;19913;-63
2022/01/28 01:22:10;;;;;;;;;;;;;;;-2.80;100.00;100721.66;5033199;28;19936;-63
2022/01/28 01:24:46;;;;;;;;;;;;;;;-2.96;100.00;100717.75;5032820;28;20314;-63
2022/01/28 01:27:12;;;;;;;;;;;;;;;-2.84;100.00;100713.25;5032811;28;20434;-62
2022/01/28 01:29:42;;;;;;;;;;;;;;;-2.49;100.00;100697.09;5032427;28;20008;-63
2022/01/28 01:32:12;;;;;;;;;;;;;;;-2.70;100.00;100697.19;5032701;28;20359;-62
2022/01/28 01:34:38;;;;;;;;;;;;;;;-2.80;100.00;100686.84;5031598;28;19908;-63
2022/01/28 01:37:03;;;;;;;;;;;;;;;-2.53;100.00;100690.31;5033071;28;20028;-62
2022/01/28 01:39:33;;;;;;;;;;;;;;;-2.60;100.00;100690.03;5031526;28;19920;-62
2022/01/28 01:42:07;;;;;;;;;;;;;;;-2.86;100.00;100691.59;5032475;28;20367;-62
2022/01/28 01:52:38;;;;;;;;;;;;;;;-2.60;100.00;100661.03;5031963;28;20444;-63
2022/01/28 01:55:03;;;;;;;;;;;;;;;-3.01;100.00;100648.75;5032106;28;19917;-63
2022/01/28 01:57:30;;;;;;;;;;;;;;;-2.56;100.00;100645.44;5032011;28;20301;-63
2022/01/28 01:59:55;;;;;;;;;;;;;;;-2.78;100.00;100647.94;5030812;28;19913;-63
2022/01/28 02:02:20;;;;;;;;;;;;;;;-2.56;100.00;100652.91;5032123;28;19921;-63
2022/01/28 02:04:46;;;;;;;;;;;;;;;-2.75;100.00;100655.50;5031832;28;20314;-63
2022/01/28 02:07:13;;;;;;;;;;;;;;;-2.92;100.00;100654.06;5031741;28;19970;-62
2022/01/28 02:09:40;;;;;;;;;;;;;;;-3.11;100.00;100639.28;5032154;28;19938;-63
2022/01/28 02:12:05;;;;;;;;;;;;;;;-3.22;100.00;100651.28;5030670;28;19920;-62
2022/01/28 02:14:30;;;;;;;;;;;;;;;-2.78;100.00;100643.81;5029846;28;20310;-62
2022/01/28 02:16:56;;;;;;;;;;;;;;;-3.14;100.00;100637.50;5032247;28;19920;-63
2022/01/28 02:19:21;;;;;;;;;;;;;;;-2.87;100.00;100636.03;5031456;28;19999;-62
2022/01/28 02:21:52;;;;;;;;;;;;;;;-2.94;100.00;100629.16;5031883;28;19912;-63
2022/01/28 02:24:23;;;;;;;;;;;;;;;-2.74;100.00;100623.25;5031735;28;19920;-63
2022/01/28 02:26:48;;;;;;;;;;;;;;;-2.91;100.00;100621.78;5031590;28;20294;-63
2022/01/28 02:29:25;;;;;;;;;;;;;;;-2.93;100.00;100618.38;5031606;28;19913;-63
2022/01/28 02:31:50;;;;;;;;;;;;;;;-2.85;100.00;100618.66;5031650;28;19913;-63
2022/01/28 02:34:16;;;;;;;;;;;;;;;-2.92;100.00;100611.78;5031354;28;19939;-63
2022/01/28 02:36:41;;;;;;;;;;;;;;;-2.78;100.00;100613.97;5031549;28;19913;-63
2022/01/28 02:39:07;;;;;;;;;;;;;;;-3.07;100.00;100617.03;5029937;28;19917;-63
2022/01/28 02:41:37;;;;;;;;;;;;;;;-2.98;100.00;100621.50;5031525;28;20398;-63
2022/01/28 02:46:40;;;;;;;;;;;;;;;-2.98;100.00;100619.03;5031329;28;20302;-63
2022/01/28 02:49:09;;;;;;;;;;;;;;;-2.78;100.00;100618.09;5031001;28;20015;-63
2022/01/28 02:51:35;;;;;;;;;;;;;;;-2.95;100.00;100614.19;5031347;28;19975;-63
2022/01/28 02:54:11;;;;;;;;;;;;;;;-2.87;100.00;100617.75;5030007;28;19921;-63
2022/01/28 02:56:38;;;;;;;;;;;;;;;-3.20;100.00;100611.56;5031232;28;20421;-63
2022/01/28 02:59:04;;;;;;;;;;;;;;;-2.89;100.00;100609.41;5031183;28;19913;-63
2022/01/28 03:01:30;;;;;;;;;;;;;;;-2.94;100.00;100601.78;5030938;28;19913;-63
2022/01/28 03:03:56;;;;;;;;;;;;;;;-3.14;100.00;100614.28;5031394;28;19923;-63
2022/01/28 03:06:22;;;;;;;;;;;;;;;-3.02;100.00;100608.13;5031150;28;19962;-63
2022/01/28 03:08:55;;;;;;;;;;;;;;;-2.61;100.00;100611.25;5031201;28;19920;-63
2022/01/28 03:16:40;;;;;;;;;;;;;;;-3.29;100.00;100592.22;5031179;28;20409;-62
2022/01/28 03:19:14;;;;;;;;;;;;;;;-2.61;100.00;100588.84;5029880;28;19913;-63
2022/01/28 03:21:45;;;;;;;;;;;;;;;-2.66;100.00;100594.50;5030896;28;20383;-62
2022/01/28 03:24:12;;;;;;;;;;;;;;;-3.06;100.00;100596.38;5030295;28;20421;-63
2022/01/28 03:26:37;;;;;;;;;;;;;;;-3.14;100.00;100595.25;5030507;28;19920;-63
2022/01/28 03:29:03;;;;;;;;;;;;;;;-2.88;100.00;100594.56;5029685;28;20285;-63
2022/01/28 03:31:29;;;;;;;;;;;;;;;-3.18;100.00;100598.41;5030864;28;20405;-63
2022/01/28 03:33:54;;;;;;;;;;;;;;;-3.22;100.00;100594.13;5029212;28;20430;-63
2022/01/28 03:36:19;;;;;;;;;;;;;;;-2.88;100.00;100596.19;5030793;28;19922;-63
2022/01/28 03:38:48;;;;;;;;;;;;;;;-2.78;100.00;100591.59;5030484;28;19913;-63
2022/01/28 03:41:16;;;;;;;;;;;;;;;-2.94;100.00;100591.00;5030303;28;19936;-63
2022/01/28 03:43:45;;;;;;;;;;;;;;;-3.08;100.00;100585.53;5030873;28;19913;-63
2022/01/28 03:46:11;;;;;;;;;;;;;;;-2.60;100.00;100588.03;5030633;28;19913;-63
2022/01/28 03:48:36;;;;;;;;;;;;;;;-2.68;100.00;100580.31;5030462;28;20428;-63
2022/01/28 03:51:01;;;;;;;;;;;;;;;-2.61;100.00;100576.41;5030283;28;19935;-64
2022/01/28 03:53:27;;;;;;;;;;;;;;;-2.94;100.00;100576.06;5030266;28;19913;-64
2022/01/28 03:55:53;;;;;;;;;;;;;;;-2.72;100.00;100571.06;5030408;28;19916;-62
2022/01/28 03:58:19;;;;;;;;;;;;;;;-2.63;100.00;100568.88;5030640;28;19913;-62
2022/01/28 04:00:45;;;;;;;;;;;;;;;-2.77;100.00;100568.41;5030127;28;19913;-62
2022/01/28 04:14:09;;;;;;;;;;;;;;;-3.03;100.00;100555.88;5025378;28;19967;-62
2022/01/28 04:19:19;;;;;;;;;;;;;;;-3.84;100.00;100549.53;5030354;28;19919;-62
2022/01/28 04:21:45;;;;;;;;;;;;;;;-3.53;100.00;100546.59;5030286;28;19917;-63
2022/01/28 04:24:10;;;;;;;;;;;;;;;-3.35;100.00;100552.25;5029043;28;19914;-62
2022/01/28 04:26:35;;;;;;;;;;;;;;;-3.56;100.00;100554.78;5030686;28;19913;-63
2022/01/28 04:29:01;;;;;;;;;;;;;;;-3.17;100.00;100555.34;5028467;28;20286;-63
2022/01/28 04:31:26;;;;;;;;;;;;;;;-3.19;100.00;100561.91;5030641;28;19913;-63
2022/01/28 04:33:53;;;;;;;;;;;;;;;-3.90;100.00;100560.91;5030216;28;19996;-63
2022/01/28 04:36:20;;;;;;;;;;;;;;;-3.68;100.00;100554.31;5031661;28;19913;-62
2022/01/28 04:39:02;;;;;;;;;;;;;;;-3.90;100.00;100559.25;5033738;28;19959;-62
2022/01/28 04:44:01;;;;;;;;;;;;;;;-3.13;100.00;100557.16;5033936;28;19912;-63
2022/01/28 04:51:48;;;;;;;;;;;;;;;-3.65;100.00;100559.41;5033604;28;19913;-62
2022/01/28 04:54:36;;;;;;;;;;;;;;;-3.31;100.00;100554.03;5033495;28;19920;-62
2022/01/28 05:05:35;;;;;;;;;;;;;;;-3.45;100.00;100545.25;5013272;28;19924;-62
2022/01/28 05:24:08;;;;;;;;;;;;;;;-3.31;100.00;100540.78;5011408;28;19923;-62
2022/01/28 05:29:10;;;;;;;;;;;;;;;-4.00;100.00;100546.44;5010480;28;20353;-64
2022/01/28 05:31:35;;;;;;;;;;;;;;;-3.56;100.00;100539.00;5010403;28;19921;-62
2022/01/28 05:34:00;;;;;;;;;;;;;;;-3.37;100.00;100535.56;5011428;28;19914;-62
2022/01/28 05:36:26;;;;;;;;;;;;;;;-3.63;100.00;100539.59;5012911;28;19969;-62
2022/01/28 05:38:52;;;;;;;;;;;;;;;-3.53;100.00;100534.19;5012686;28;20367;-62
2022/01/28 05:41:17;;;;;;;;;;;;;;;-3.91;100.00;100534.38;5012740;28;20352;-62
2022/01/28 05:43:42;;;;;;;;;;;;;;;-3.58;100.00;100538.97;5012794;28;19919;-63
2022/01/28 05:46:08;;;;;;;;;;;;;;;-3.59;100.00;100536.44;5010836;28;19914;-61
2022/01/28 05:48:34;;;;;;;;;;;;;;;-3.33;100.00;100539.88;5012171;28;19921;-62
2022/01/28 05:50:59;;;;;;;;;;;;;;;-3.49;100.00;100535.97;5012314;28;19917;-62
2022/01/28 05:53:24;;;;;;;;;;;;;;;-2.80;100.00;100532.66;5011006;28;20008;-62
2022/01/28 05:55:49;;;;;;;;;;;;;;;-3.31;100.00;100536.66;5012294;28;19920;-62
2022/01/28 05:58:15;;;;;;;;;;;;;;;-3.04;100.00;100534.28;5010499;28;19914;-63
2022/01/28 06:00:40;;;;;;;;;;;;;;;-3.14;100.00;100537.22;5011178;28;19918;-63
2022/01/28 06:03:07;;;;;;;;;;;;;;;-3.15;100.00;100538.88;5011624;28;19936;-63
2022/01/28 06:05:32;;;;;;;;;;;;;;;-1.76;100.00;100521.91;5011884;28;19918;-62
2022/01/28 06:07:58;;;;;;;;;;;;;;;-1.61;100.00;100540.63;5011141;28;19963;-63
2022/01/28 06:10:24;;;;;;;;;;;;;;;-0.08;100.00;100543.94;5010972;28;19921;-63
2022/01/28 06:12:49;;;;;;;;;;;;;;;0.03;100.00;100545.00;5011140;28;19914;-63
2022/01/28 06:15:15;;;;;;;;;;;;;;;0.76;100.00;100549.94;5009404;28;19913;-64
2022/01/28 06:17:40;;;;;;;;;;;;;;;1.36;100.00;100548.63;5011468;28;19921;-63
2022/01/28 06:20:07;;;;;;;;;;;;;;;1.95;100.00;100551.28;5011512;28;19914;-64
2022/01/28 06:22:32;;;;;;;;;;;;;;;0.75;100.00;100549.09;5011956;28;19917;-63
2022/01/28 06:24:58;;;;;;;;;;;;;;;1.55;100.00;100564.81;5012101;28;19914;-63
2022/01/28 06:27:23;;;;;;;;;;;;;;;2.54;100.00;100548.81;5011905;28;20323;-63
2022/01/28 06:29:49;;;;;;;;;;;;;;;2.17;100.00;100550.78;5011514;28;20071;-63
2022/01/28 06:32:15;;;;;;;;;;;;;;;1.99;100.00;100535.47;5011781;28;19932;-63
2022/01/28 06:34:40;;;;;;;;;;;;;;;0.05;100.00;100563.38;5012144;28;19905;-63
2022/01/28 06:37:05;;;;;;;;;;;;;;;3.94;100.00;100541.94;5011588;28;19914;-62
2022/01/28 06:39:32;;;;;;;;;;;;;;;1.75;100.00;100549.31;5011972;28;19975;-63
2022/01/28 06:41:58;;;;;;;;;;;;;;;1.00;100.00;100560.44;5011992;28;19917;-63
2022/01/28 06:44:23;;;;;;;;;;;;;;;3.97;100.00;100541.13;5011628;28;19918;-62
2022/01/28 06:46:49;;;;;;;;;;;;;;;3.48;100.00;100542.38;5012068;28;19921;-62
2022/01/28 06:49:14;;;;;;;;;;;;;;;4.26;100.00;100529.56;5011583;28;19909;-63
2022/01/28 06:51:39;;;;;;;;;;;;;;;5.17;100.00;100514.03;5010205;28;19913;-63
2022/01/28 06:54:05;;;;;;;;;;;;;;;4.99;99.47;100503.91;5011459;28;19914;-63
2022/01/28 06:56:30;;;;;;;;;;;;;;;2.86;100.00;100519.09;5011547;28;19914;-63
2022/01/28 06:58:55;;;;;;;;;;;;;;;5.72;100.00;100496.47;5010913;28;19920;-63
2022/01/28 07:01:20;;;;;;;;;;;;;;;0.77;100.00;100516.63;5011096;28;19921;-63
2022/01/28 07:03:46;;;;;;;;;;;;;;;0.61;100.00;100524.63;5011197;28;19925;-64
2022/01/28 07:06:12;;;;;;;;;;;;;;;-0.31;100.00;100523.38;5011526;28;20340;-63
2022/01/28 07:08:38;;;;;;;;;;;;;;;-0.83;100.00;100540.34;5011494;28;19914;-63
2022/01/28 07:11:03;;;;;;;;;;;;;;;-0.19;100.00;100516.19;5011323;28;19924;-63
2022/01/28 07:13:29;;;;;;;;;;;;;;;-0.88;100.00;100539.38;5009770;28;19914;-63
2022/01/28 07:15:54;;;;;;;;;;;;;;;0.12;100.00;100519.41;5010977;28;19991;-63
2022/01/28 07:18:20;;;;;;;;;;;;;;;0.16;100.00;100531.16;5011412;28;19913;-63
2022/01/28 07:20:45;;;;;;;;;;;;;;;0.41;100.00;100520.88;5011242;28;19925;-63
2022/01/28 07:23:10;;;;;;;;;;;;;;;2.96;100.00;100499.97;5011148;28;20411;-63
2022/01/28 07:25:36;;;;;;;;;;;;;;;1.26;100.00;100519.22;5010970;28;20469;-63
2022/01/28 07:28:01;;;;;;;;;;;;;;;0.27;100.00;100517.22;5011225;28;19923;-63
2022/01/28 07:30:26;;;;;;;;;;;;;;;-0.77;100.00;100522.22;5009489;28;20346;-63
2022/01/28 07:32:52;;;;;;;;;;;;;;;-0.33;100.00;100525.00;5011155;28;20311;-63
2022/01/28 07:35:18;;;;;;;;;;;;;;;0.94;100.00;100515.28;5011003;28;19917;-64
2022/01/28 07:37:43;;;;;;;;;;;;;;;0.80;100.00;100516.66;5011254;28;20007;-63
2022/01/28 07:40:09;;;;;;;;;;;;;;;0.85;100.00;100498.44;5010863;28;19971;-64
2022/01/28 07:42:36;;;;;;;;;;;;;;;1.24;100.00;100484.97;5011211;28;19913;-63
2022/01/28 07:45:02;;;;;;;;;;;;;;;0.91;100.00;100491.88;5010958;28;20390;-64
2022/01/28 07:47:28;;;;;;;;;;;;;;;0.27;100.00;100499.72;5010756;28;19921;-64
2022/01/28 07:49:53;;;;;;;;;;;;;;;-0.20;100.00;100509.47;5010954;28;19917;-64
2022/01/28 07:52:18;;;;;;;;;;;;;;;0.05;100.00;100512.56;5010919;28;19917;-63
2022/01/28 07:54:48;;;;;;;;;;;;;;;0.49;100.00;100507.72;5009766;28;20012;-63
2022/01/28 07:57:13;;;;;;;;;;;;;;;0.17;100.00;100515.31;5010990;28;20374;-64
2022/01/28 07:59:39;;;;;;;;;;;;;;;0.43;100.00;100511.75;5009288;28;19964;-64
2022/01/28 08:02:04;;;;;;;;;;;;;;;0.13;100.00;100509.41;5010677;28;19952;-64
2022/01/28 08:04:29;;;;;;;;;;;;;;;0.21;100.00;100510.44;5009577;28;19959;-64
2022/01/28 08:06:55;;;;;;;;;;;;;;;0.25;100.00;100496.34;5010629;28;20375;-64
2022/01/28 08:09:20;;;;;;;;;;;;;;;0.67;100.00;100503.06;5010567;28;19913;-64
2022/01/28 08:11:45;;;;;;;;;;;;;;;0.56;100.00;100488.66;5013033;28;19913;-63
2022/01/28 08:14:10;;;;;;;;;;;;;;;0.41;100.00;100470.84;5014379;28;19920;-64
2022/01/28 08:16:36;;;;;;;;;;;;;;;0.49;100.00;100480.22;5014215;28;19948;-64
2022/01/28 08:19:01;;;;;;;;;;;;;;;0.58;100.00;100462.88;5014364;28;19913;-64
2022/01/28 08:21:26;;;;;;;;;;;;;;;0.98;100.00;100492.00;5014661;28;20004;-64
2022/01/28 08:23:52;;;;;;;;;;;;;;;0.99;100.00;100502.88;5014214;28;19940;-64
2022/01/28 08:26:18;;;;;;;;;;;;;;;1.33;100.00;100460.06;5012923;28;20052;-64
2022/01/28 08:28:44;;;;;;;;;;;;;;;1.40;100.00;100482.75;5013979;28;20417;-64
2022/01/28 08:31:09;;;;;;;;;;;;;;;1.50;100.00;100477.09;5014066;28;19913;-64
2022/01/28 08:33:35;;;;;;;;;;;;;;;1.81;100.00;100480.91;5014060;28;19913;-64
2022/01/28 08:36:02;;;;;;;;;;;;;;;1.55;100.00;100480.50;5014019;28;20434;-64
2022/01/28 08:38:35;;;;;;;;;;;;;;;1.40;100.00;100481.91;5012579;28;20351;-64
2022/01/28 08:41:00;;;;;;;;;;;;;;;1.34;100.00;100494.31;5014573;28;19949;-64
2022/01/28 08:43:25;;;;;;;;;;;;;;;1.92;100.00;100476.91;5014292;28;19955;-64
2022/01/28 08:45:51;;;;;;;;;;;;;;;2.55;100.00;100496.97;5014069;28;19917;-64
2022/01/28 08:48:16;;;;;;;;;;;;;;;1.85;100.00;100484.28;5014244;28;19913;-64
2022/01/28 08:50:41;;;;;;;;;;;;;;;1.93;100.00;100395.88;5013761;28;19914;-64
2022/01/28 08:53:07;;;;;;;;;;;;;;;2.73;100.00;100482.16;5014050;28;19913;-64
2022/01/28 08:55:32;;;;;;;;;;;;;;;3.33;100.00;100472.72;5013918;28;19913;-64
2022/01/28 08:57:57;;;;;;;;;;;;;;;2.54;100.00;100467.69;5013196;28;19971;-65
2022/01/28 09:00:23;;;;;;;;;;;;;;;2.25;100.00;100427.22;5013800;28;19996;-64
2022/01/28 09:02:49;;;;;;;;;;;;;;;2.95;100.00;100468.97;5013708;28;19971;-64
2022/01/28 09:05:14;;;;;;;;;;;;;;;2.99;100.00;100477.41;5012171;28;19917;-64
2022/01/28 09:07:40;;;;;;;;;;;;;;;2.78;100.00;100473.00;5013674;28;19920;-64
2022/01/28 09:10:11;;;;;;;;;;;;;;;2.88;100.00;100458.88;5013556;28;19924;-64
2022/01/28 09:12:46;;;;;;;;;;;;;;;3.11;100.00;100455.75;5013039;28;19917;-64
2022/01/28 09:15:12;;;;;;;;;;;;;;;2.72;100.00;100455.34;5013558;28;19917;-64
2022/01/28 09:17:38;;;;;;;;;;;;;;;2.72;100.00;100462.88;5012027;28;20418;-65
2022/01/28 09:20:03;;;;;;;;;;;;;;;2.89;100.00;100468.09;5011778;28;19920;-64
2022/01/28 09:22:29;;;;;;;;;;;;;;;2.95;100.00;100465.66;5012504;28;19921;-65
2022/01/28 09:24:54;;;;;;;;;;;;;;;3.30;100.00;100464.31;5013473;28;20695;-64
2022/01/28 09:27:19;;;;;;;;;;;;;;;3.48;100.00;100451.91;5012840;28;20035;-64
2022/01/28 09:29:44;;;;;;;;;;;;;;;2.90;100.00;100463.09;5013100;28;20338;-64
2022/01/28 09:32:10;;;;;;;;;;;;;;;3.42;100.00;100445.19;5013091;28;20379;-64
2022/01/28 09:34:35;;;;;;;;;;;;;;;3.93;100.00;100451.41;5012917;28;21072;-64
2022/01/28 09:37:00;;;;;;;;;;;;;;;3.61;100.00;100441.13;5013231;28;19913;-64
2022/01/28 09:39:26;;;;;;;;;;;;;;;3.58;100.00;100436.09;5011613;28;20012;-64
2022/01/28 09:41:59;;;;;;;;;;;;;;;3.97;100.00;100440.53;5012675;28;19924;-64
2022/01/28 09:44:25;;;;;;;;;;;;;;;4.07;100.00;100430.53;5012981;28;19917;-63
2022/01/28 09:46:50;;;;;;;;;;;;;;;4.14;100.00;100428.91;5012694;28;19914;-63
2022/01/28 09:49:16;;;;;;;;;;;;;;;4.66;100.00;100419.84;5012842;28;19940;-64
2022/01/28 09:51:41;;;;;;;;;;;;;;;4.86;100.00;100416.56;5012998;28;19928;-64
2022/01/28 09:54:06;;;;;;;;;;;;;;;4.97;100.00;100416.59;5011244;28;19913;-65
2022/01/28 09:56:32;;;;;;;;;;;;;;;5.03;100.00;100417.41;5012652;28;19925;-64
2022/01/28 09:59:00;;;;;;;;;;;;;;;5.14;100.00;100408.22;5012619;28;19964;-64
2022/01/28 10:01:26;;;;;;;;;;;;;;;4.93;100.00;100413.19;5012472;28;20384;-64
2022/01/28 10:04:04;;;;;;;;;;;;;;;4.84;100.00;100397.25;5011032;28;19917;-64
2022/01/28 10:06:33;;;;;;;;;;;;;;;5.36;97.68;100400.66;5010745;28;19917;-65
2022/01/28 10:09:01;;;;;;;;;;;;;;;5.27;96.68;100397.28;5012281;28;19921;-64
2022/01/28 10:11:27;;;;;;;;;;;;;;;5.47;98.36;100391.41;5012459;28;19919;-64
2022/01/28 10:13:55;;;;;;;;;;;;;;;5.75;95.96;100382.94;5011988;28;19913;-64
2022/01/28 10:16:26;;;;;;;;;;;;;;;5.87;95.34;100386.31;5012233;28;19915;-64
2022/01/28 10:18:53;;;;;;;;;;;;;;;6.46;91.23;100372.63;5012423;28;19914;-64
2022/01/28 10:21:27;;;;;;;;;;;;;;;6.10;93.44;100376.97;5011833;28;20426;-64
2022/01/28 10:24:01;;;;;;;;;;;;;;;6.42;92.12;100358.34;5012151;28;19936;-63
2022/01/28 10:26:32;;;;;;;;;;;;;;;6.59;92.73;100354.03;5012053;28;19936;-63
2022/01/28 10:28:58;;;;;;;;;;;;;;;6.15;94.33;100359.31;5012138;28;19921;-64
2022/01/28 10:31:32;;;;;;;;;;;;;;;6.85;91.78;100342.91;5011729;28;19917;-64
2022/01/28 10:34:08;;;;;;;;;;;;;;;6.61;90.72;100338.03;5012132;28;19913;-64
2022/01/28 10:36:33;;;;;;;;;;;;;;;6.63;88.79;100330.44;5011696;28;20003;-64
2022/01/28 10:38:58;;;;;;;;;;;;;;;6.52;89.64;100337.22;5012028;28;20375;-64
2022/01/28 10:41:25;;;;;;;;;;;;;;;6.90;86.88;100322.66;5011781;28;20366;-64
2022/01/28 10:43:54;;;;;;;;;;;;;;;7.31;87.54;100318.09;5011841;28;19920;-65
2022/01/28 10:46:23;;;;;;;;;;;;;;;7.47;83.26;100316.25;5010397;28;20303;-64
2022/01/28 10:48:56;;;;;;;;;;;;;;;7.02;86.13;100317.50;5011566;28;20390;-64
2022/01/28 10:51:22;;;;;;;;;;;;;;;6.73;87.17;100315.22;5011425;28;20003;-64
2022/01/28 10:54:04;;;;;;;;;;;;;;;6.97;84.98;100321.78;5011643;28;19914;-66
2022/01/28 10:56:29;;;;;;;;;;;;;;;7.65;80.27;100323.66;5011512;28;20000;-64
2022/01/28 10:58:55;;;;;;;;;;;;;;;7.27;79.31;100315.63;5011322;28;20012;-66
2022/01/28 11:01:22;;;;;;;;;;;;;;;7.38;76.15;100311.28;5011614;28;19953;-63
2022/01/28 11:03:48;;;;;;;;;;;;;;;7.48;72.94;100316.25;5011247;28;20302;-63
2022/01/28 11:06:13;;;;;;;;;;;;;;;7.37;72.23;100312.97;5011338;28;20012;-63
2022/01/28 11:08:38;;;;;;;;;;;;;;;7.74;69.64;100309.19;5011425;28;19966;-63
2022/01/28 11:11:04;;;;;;;;;;;;;;;7.71;68.46;100294.06;5011141;28;21819;-64
2022/01/28 11:13:29;;;;;;;;;;;;;;;7.56;67.47;100301.84;5011186;28;19914;-64
2022/01/28 11:15:55;;;;;;;;;;;;;;;8.00;66.67;100300.47;5011233;28;19933;-64
2022/01/28 11:18:20;;;;;;;;;;;;;;;8.39;64.95;100303.38;5011281;28;20307;-64
2022/01/28 11:20:50;;;;;;;;;;;;;;;7.98;65.21;100295.44;5011343;28;19971;-63
2022/01/28 11:23:22;;;;;;;;;;;;;;;7.82;64.69;100297.28;5011049;28;19914;-64
2022/01/28 11:26:06;;;;;;;;;;;;;;;8.40;63.95;100294.88;5009800;28;19920;-63
2022/01/28 11:28:44;;;;;;;;;;;;;;;8.55;62.18;100287.09;5011299;28;19917;-65
2022/01/28 11:31:10;;;;;;;;;;;;;;;8.37;63.51;100276.38;5010992;28;19917;-64
2022/01/28 11:33:47;;;;;;;;;;;;;;;8.69;62.46;100277.53;5011050;28;19920;-65
2022/01/28 11:36:12;;;;;;;;;;;;;;;8.82;61.73;100274.81;5011053;28;19917;-65
2022/01/28 11:38:45;;;;;;;;;;;;;;;8.56;62.04;100268.47;5010856;28;19924;-65
2022/01/28 11:41:14;;;;;;;;;;;;;;;9.05;61.51;100257.56;5010772;28;19924;-65
2022/01/28 11:43:45;;;;;;;;;;;;;;;9.31;59.80;100257.94;5011171;28;19913;-65
2022/01/28 11:46:20;;;;;;;;;;;;;;;9.24;61.02;100254.66;5012115;28;20384;-65
2022/01/28 11:48:51;;;;;;;;;;;;;;;9.04;60.23;100254.16;5014797;28;19961;-63
2022/01/28 11:51:17;;;;;;;;;;;;;;;9.06;59.77;100257.50;5014923;28;19983;-65
2022/01/28 11:53:56;;;;;;;;;;;;;;;9.00;60.29;100244.94;5013727;28;20391;-65
2022/01/28 11:56:21;;;;;;;;;;;;;;;9.49;60.59;100227.09;5015031;28;19917;-63
2022/01/28 11:58:52;;;;;;;;;;;;;;;10.27;59.50;100234.78;5014866;28;19917;-63
2022/01/28 12:01:24;;;;;;;;;;;;;;;9.58;58.35;100230.31;5014622;28;19926;-63
2022/01/28 12:03:49;;;;;;;;;;;;;;;10.08;58.76;100231.78;5014909;28;20013;-64
2022/01/28 12:06:17;;;;;;;;;;;;;;;10.51;57.30;100234.22;5013439;28;19921;-64
2022/01/28 12:08:43;;;;;;;;;;;;;;;9.83;58.73;100225.56;5014564;28;19923;-64
2022/01/28 12:11:10;;;;;;;;;;;;;;;10.45;58.85;100242.00;5012960;28;19921;-64
2022/01/28 12:13:48;;;;;;;;;;;;;;;10.16;57.67;100231.66;5014898;28;19917;-63
2022/01/28 12:16:24;;;;;;;;;;;;;;;10.27;57.60;100227.16;5013164;28;19968;-64
2022/01/28 12:18:54;;;;;;;;;;;;;;;9.70;58.18;100233.47;5014572;28;20387;-63
2022/01/28 12:21:23;;;;;;;;;;;;;;;10.27;57.33;100222.09;5012978;28;19913;-64
2022/01/28 12:23:48;;;;;;;;;;;;;;;10.31;57.43;100216.91;5012955;28;20321;-66
2022/01/28 12:26:17;;;;;;;;;;;;;;;10.40;57.75;100226.84;5014201;28;19913;-63
2022/01/28 12:28:47;;;;;;;;;;;;;;;10.68;55.63;100221.94;5013867;28;19967;-64
2022/01/28 12:31:16;;;;;;;;;;;;;;;10.51;56.23;100224.06;5014305;28;20296;-64
2022/01/28 12:33:43;;;;;;;;;;;;;;;11.05;56.40;100224.41;5014096;28;20015;-64
2022/01/28 12:36:10;;;;;;;;;;;;;;;10.40;56.17;100210.75;5014114;28;19980;-64
2022/01/28 12:38:37;;;;;;;;;;;;;;;11.75;54.56;100211.44;5014106;28;19913;-63
2022/01/28 12:41:06;;;;;;;;;;;;;;;11.05;54.77;100201.50;5013926;28;19914;-64
2022/01/28 12:43:32;;;;;;;;;;;;;;;10.91;55.88;100206.97;5012907;28;19921;-64
2022/01/28 12:45:59;;;;;;;;;;;;;;;11.22;55.09;100207.81;5014119;28;19917;-64
2022/01/28 12:48:25;;;;;;;;;;;;;;;11.36;55.49;100212.53;5013663;28;20355;-63
2022/01/28 12:50:51;;;;;;;;;;;;;;;11.63;54.89;100199.00;5013801;28;19952;-64
2022/01/28 12:53:30;;;;;;;;;;;;;;;10.94;53.49;100211.94;5013755;28;20367;-64
2022/01/28 12:55:56;;;;;;;;;;;;;;;11.25;54.34;100214.53;5013906;28;19982;-63
2022/01/28 12:58:34;;;;;;;;;;;;;;;10.94;53.92;100211.94;5013747;28;19913;-64
2022/01/28 13:01:04;;;;;;;;;;;;;;;10.52;55.08;100212.19;5013483;28;20414;-64
2022/01/28 13:03:36;;;;;;;;;;;;;;;10.67;55.37;100211.81;5013472;28;19917;-64
2022/01/28 13:09:09;;;;;;;;;;;;;;;10.02;57.38;100203.97;4972240;28;19917;-64
2022/01/28 13:11:46;;;;;;;;;;;;;;;9.86;58.08;100210.28;5018828;28;19975;-64
2022/01/28 13:14:12;;;;;;;;;;;;;;;9.97;58.31;100200.72;5012115;28;19913;-64
2022/01/28 13:16:39;;;;;;;;;;;;;;;9.77;58.46;100192.69;5013070;28;19937;-65
2022/01/28 13:19:05;;;;;;;;;;;;;;;9.80;58.62;100199.41;5013472;28;20314;-65
2022/01/28 13:21:31;;;;;;;;;;;;;;;10.32;59.07;100195.69;5013048;28;20351;-65
2022/01/28 13:24:15;;;;;;;;;;;;;;;10.17;59.44;100205.38;5013205;28;19921;-64
2022/01/28 13:26:57;;;;;;;;;;;;;;;10.04;59.28;100204.78;5013213;28;19964;-65
2022/01/28 13:29:33;;;;;;;;;;;;;;;10.06;59.18;100204.75;5013101;28;20000;-64
2022/01/28 13:32:03;;;;;;;;;;;;;;;9.98;57.92;100196.47;5011856;28;19913;-64
2022/01/28 13:34:41;;;;;;;;;;;;;;;9.81;59.16;100191.75;5025655;28;19913;-64
2022/01/28 13:37:08;;;;;;;;;;;;;;;10.96;56.29;100189.00;5033112;28;19920;-65
2022/01/28 13:39:40;;;;;;;;;;;;;;;9.98;58.12;100204.09;5032421;28;20370;-65
2022/01/28 13:42:09;;;;;;;;;;;;;;;9.82;58.50;100207.84;5032622;28;19936;-65
2022/01/28 13:44:38;;;;;;;;;;;;;;;10.63;58.26;100198.34;5032783;28;19928;-65
2022/01/28 13:47:04;;;;;;;;;;;;;;;10.85;56.34;100209.66;5032418;28;19924;-64
2022/01/28 13:49:33;;;;;;;;;;;;;;;10.35;59.21;100210.88;5032787;28;19917;-64
2022/01/28 13:52:08;;;;;;;;;;;;;;;11.02;57.83;100204.13;5030684;28;19913;-64
2022/01/28 13:54:33;;;;;;;;;;;;;;;11.54;55.85;100204.38;5032534;28;20055;-64
2022/01/28 13:57:04;;;;;;;;;;;;;;;12.17;52.88;100202.50;5032312;28;19951;-63
2022/01/28 13:59:30;;;;;;;;;;;;;;;11.36;54.79;100199.81;5032293;28;20364;-65
2022/01/28 14:01:59;;;;;;;;;;;;;;;12.91;51.79;100196.69;5032112;28;19920;-64
2022/01/28 14:04:32;;;;;;;;;;;;;;;12.37;52.70;100194.25;5031816;28;19913;-64